sensor_id;sensor_type;location;lat;lon;timestamp;pressure;altitude;pressure_sealevel;temperature;humidity
26376;BME280;30544;42.196;24.336;2023-02-10T00:02:18;101341.34;;;-4.17;63.19
26376;BME280;30544;42.196;24.336;2023-02-10T00:04:44;101341.28;;;-4.30;64.34
26376;BME280;30544;42.196;24.336;2023-02-10T00:07:12;101353.31;;;-4.34;64.25
26376;BME280;30544;42.196;24.336;2023-02-10T00:09:39;101349.84;;;-4.36;63.66
26376;BME280;30544;42.196;24.336;2023-02-10T00:12:06;101346.38;;;-4.52;64.91
26376;BME280;30544;42.196;24.336;2023-02-10T00:14:35;101339.88;;;-4.49;64.33
26376;BME280;30544;42.196;24.336;2023-02-10T00:17:02;101341.13;;;-4.41;64.43
26376;BME280;30544;42.196;24.336;2023-02-10T00:19:29;101343.47;;;-4.49;64.76
26376;BME280;30544;42.196;24.336;2023-02-10T00:21:58;101342.19;;;-4.43;64.06
26376;BME280;30544;42.196;24.336;2023-02-10T00:24:28;101340.56;;;-4.46;64.12
26376;BME280;30544;42.196;24.336;2023-02-10T00:26:54;101340.44;;;-4.44;65.17
26376;BME280;30544;42.196;24.336;2023-02-10T00:29:21;101348.03;;;-4.49;65.87
26376;BME280;30544;42.196;24.336;2023-02-10T00:31:48;101343.19;;;-4.73;66.26
26376;BME280;30544;42.196;24.336;2023-02-10T00:34:16;101328.53;;;-4.69;65.93
26376;BME280;30544;42.196;24.336;2023-02-10T00:36:43;101343.81;;;-4.68;65.63
26376;BME280;30544;42.196;24.336;2023-02-10T00:39:12;101332.97;;;-4.68;66.21
26376;BME280;30544;42.196;24.336;2023-02-10T00:41:41;101336.06;;;-4.74;66.09
26376;BME280;30544;42.196;24.336;2023-02-10T00:44:08;101339.47;;;-4.85;66.21
26376;BME280;30544;42.196;24.336;2023-02-10T00:46:35;101334.31;;;-4.89;66.55
26376;BME280;30544;42.196;24.336;2023-02-10T00:49:02;101327.28;;;-4.92;67.19
26376;BME280;30544;42.196;24.336;2023-02-10T00:51:29;101339.06;;;-4.93;66.95
26376;BME280;30544;42.196;24.336;2023-02-10T00:53:56;101332.59;;;-5.04;66.77
26376;BME280;30544;42.196;24.336;2023-02-10T00:56:22;101335.31;;;-5.04;67.49
26376;BME280;30544;42.196;24.336;2023-02-10T00:58:50;101326.41;;;-5.06;67.21
26376;BME280;30544;42.196;24.336;2023-02-10T01:01:17;101332.00;;;-5.24;68.04
26376;BME280;30544;42.196;24.336;2023-02-10T01:03:45;101327.28;;;-5.34;68.22
26376;BME280;30544;42.196;24.336;2023-02-10T01:06:13;101332.81;;;-5.36;68.47
26376;BME280;30544;42.196;24.336;2023-02-10T01:08:40;101333.25;;;-5.43;68.53
26376;BME280;30544;42.196;24.336;2023-02-10T01:11:10;101325.66;;;-5.37;68.22
26376;BME280;30544;42.196;24.336;2023-02-10T01:13:38;101331.06;;;-5.37;68.67
26376;BME280;30544;42.196;24.336;2023-02-10T01:16:08;101316.47;;;-5.34;67.98
26376;BME280;30544;42.196;24.336;2023-02-10T01:18:36;101319.84;;;-5.45;69.07
26376;BME280;30544;42.196;24.336;2023-02-10T01:21:06;101318.09;;;-5.46;69.04
26376;BME280;30544;42.196;24.336;2023-02-10T01:23:33;101322.94;;;-5.51;69.01
26376;BME280;30544;42.196;24.336;2023-02-10T01:26:00;101322.81;;;-5.64;69.32
26376;BME280;30544;42.196;24.336;2023-02-10T01:28:27;101323.19;;;-5.56;69.20
26376;BME280;30544;42.196;24.336;2023-02-10T01:30:54;101316.72;;;-5.67;69.69
26376;BME280;30544;42.196;24.336;2023-02-10T01:33:22;101319.97;;;-5.77;70.35
26376;BME280;30544;42.196;24.336;2023-02-10T01:35:49;101322.09;;;-5.82;71.22
26376;BME280;30544;42.196;24.336;2023-02-10T01:38:16;101319.56;;;-5.85;71.41
26376;BME280;30544;42.196;24.336;2023-02-10T01:40:43;101316.59;;;-5.80;70.81
26376;BME280;30544;42.196;24.336;2023-02-10T01:43:13;101318.88;;;-5.88;71.61
26376;BME280;30544;42.196;24.336;2023-02-10T01:45:40;101321.28;;;-5.98;70.96
26376;BME280;30544;42.196;24.336;2023-02-10T01:48:08;101319.59;;;-6.15;71.77
26376;BME280;30544;42.196;24.336;2023-02-10T01:50:38;101311.72;;;-6.33;72.66
26376;BME280;30544;42.196;24.336;2023-02-10T01:53:07;101316.13;;;-6.17;72.44
26376;BME280;30544;42.196;24.336;2023-02-10T01:55:37;101311.59;;;-6.16;71.91
26376;BME280;30544;42.196;24.336;2023-02-10T01:58:09;101309.31;;;-6.24;72.67
26376;BME280;30544;42.196;24.336;2023-02-10T02:00:37;101314.28;;;-6.16;71.85
26376;BME280;30544;42.196;24.336;2023-02-10T02:03:04;101310.03;;;-6.20;71.90
26376;BME280;30544;42.196;24.336;2023-02-10T02:05:32;101309.59;;;-6.28;73.21
26376;BME280;30544;42.196;24.336;2023-02-10T02:08:03;101306.03;;;-6.45;73.49
26376;BME280;30544;42.196;24.336;2023-02-10T02:10:41;101302.03;;;-6.38;73.35
26376;BME280;30544;42.196;24.336;2023-02-10T02:13:12;101304.13;;;-6.43;73.46
26376;BME280;30544;42.196;24.336;2023-02-10T02:15:45;101288.44;;;-6.36;73.56
26376;BME280;30544;42.196;24.336;2023-02-10T02:18:18;101296.81;;;-6.41;73.11
26376;BME280;30544;42.196;24.336;2023-02-10T02:21:08;101289.31;;;-6.35;73.10
26376;BME280;30544;42.196;24.336;2023-02-10T02:23:55;101285.47;;;-6.31;73.09
26376;BME280;30544;42.196;24.336;2023-02-10T02:26:50;101285.84;;;-6.38;73.02
26376;BME280;30544;42.196;24.336;2023-02-10T02:29:37;101281.84;;;-6.46;73.30
26376;BME280;30544;42.196;24.336;2023-02-10T02:32:12;101271.41;;;-6.52;73.64
26376;BME280;30544;42.196;24.336;2023-02-10T02:34:46;101269.78;;;-6.41;73.50
26376;BME280;30544;42.196;24.336;2023-02-10T02:37:19;101277.88;;;-6.41;73.33
26376;BME280;30544;42.196;24.336;2023-02-10T02:39:48;101271.53;;;-6.40;73.48
26376;BME280;30544;42.196;24.336;2023-02-10T02:42:19;101275.56;;;-6.47;73.59
26376;BME280;30544;42.196;24.336;2023-02-10T02:44:50;101282.19;;;-6.37;73.36
26376;BME280;30544;42.196;24.336;2023-02-10T02:47:30;101270.91;;;-6.29;72.97
26376;BME280;30544;42.196;24.336;2023-02-10T02:50:10;101267.34;;;-6.29;73.26
26376;BME280;30544;42.196;24.336;2023-02-10T02:52:48;101276.22;;;-6.27;73.09
26376;BME280;30544;42.196;24.336;2023-02-10T02:55:21;101267.88;;;-6.39;73.22
26376;BME280;30544;42.196;24.336;2023-02-10T02:57:53;101267.88;;;-6.39;73.07
26376;BME280;30544;42.196;24.336;2023-02-10T03:00:24;101272.34;;;-6.38;73.19
26376;BME280;30544;42.196;24.336;2023-02-10T03:02:54;101268.06;;;-6.42;73.48
26376;BME280;30544;42.196;24.336;2023-02-10T03:05:23;101267.88;;;-6.39;73.35
26376;BME280;30544;42.196;24.336;2023-02-10T03:07:54;101266.38;;;-6.28;72.87
26376;BME280;30544;42.196;24.336;2023-02-10T03:10:21;101264.56;;;-6.44;73.20
26376;BME280;30544;42.196;24.336;2023-02-10T03:12:48;101268.59;;;-6.51;73.57
26376;BME280;30544;42.196;24.336;2023-02-10T03:15:16;101263.38;;;-6.54;73.47
26376;BME280;30544;42.196;24.336;2023-02-10T03:17:43;101263.44;;;-6.55;73.51
26376;BME280;30544;42.196;24.336;2023-02-10T03:20:11;101264.69;;;-6.61;73.44
26376;BME280;30544;42.196;24.336;2023-02-10T03:22:38;101266.88;;;-6.52;73.09
26376;BME280;30544;42.196;24.336;2023-02-10T03:25:05;101264.78;;;-6.78;74.09
26376;BME280;30544;42.196;24.336;2023-02-10T03:27:32;101269.81;;;-6.56;73.71
26376;BME280;30544;42.196;24.336;2023-02-10T03:29:59;101264.69;;;-6.61;73.62
26376;BME280;30544;42.196;24.336;2023-02-10T03:32:25;101270.53;;;-6.69;73.67
26376;BME280;30544;42.196;24.336;2023-02-10T03:34:52;101266.25;;;-6.57;73.82
26376;BME280;30544;42.196;24.336;2023-02-10T03:37:20;101262.66;;;-6.57;73.85
26376;BME280;30544;42.196;24.336;2023-02-10T03:39:47;101268.78;;;-6.54;73.01
26376;BME280;30544;42.196;24.336;2023-02-10T03:42:14;101267.56;;;-6.64;72.93
26376;BME280;30544;42.196;24.336;2023-02-10T03:44:41;101266.44;;;-6.60;73.21
26376;BME280;30544;42.196;24.336;2023-02-10T03:47:08;101261.81;;;-6.89;73.90
26376;BME280;30544;42.196;24.336;2023-02-10T03:49:35;101259.84;;;-6.86;74.34
26376;BME280;30544;42.196;24.336;2023-02-10T03:52:02;101260.81;;;-6.71;73.90
26376;BME280;30544;42.196;24.336;2023-02-10T03:54:30;101254.44;;;-6.70;73.92
26376;BME280;30544;42.196;24.336;2023-02-10T03:56:57;101256.50;;;-6.75;73.45
26376;BME280;30544;42.196;24.336;2023-02-10T03:59:24;101264.97;;;-6.81;73.74
26376;BME280;30544;42.196;24.336;2023-02-10T04:01:51;101256.31;;;-6.72;73.27
26376;BME280;30544;42.196;24.336;2023-02-10T04:04:18;101255.03;;;-6.65;72.82
26376;BME280;30544;42.196;24.336;2023-02-10T04:06:44;101247.13;;;-6.68;72.60
26376;BME280;30544;42.196;24.336;2023-02-10T04:09:11;101250.78;;;-6.85;72.83
26376;BME280;30544;42.196;24.336;2023-02-10T04:11:39;101246.00;;;-6.80;72.79
26376;BME280;30544;42.196;24.336;2023-02-10T04:14:06;101251.66;;;-6.69;72.55
26376;BME280;30544;42.196;24.336;2023-02-10T04:16:33;101252.25;;;-6.95;72.98
26376;BME280;30544;42.196;24.336;2023-02-10T04:19:00;101253.31;;;-6.98;73.40
26376;BME280;30544;42.196;24.336;2023-02-10T04:21:27;101245.03;;;-6.79;72.90
26376;BME280;30544;42.196;24.336;2023-02-10T04:23:53;101244.75;;;-6.74;72.75
26376;BME280;30544;42.196;24.336;2023-02-10T04:26:21;101249.16;;;-6.87;72.93
26376;BME280;30544;42.196;24.336;2023-02-10T04:28:49;101255.13;;;-6.82;72.23
26376;BME280;30544;42.196;24.336;2023-02-10T04:31:16;101244.63;;;-6.87;72.75
26376;BME280;30544;42.196;24.336;2023-02-10T04:33:43;101251.75;;;-6.70;72.60
26376;BME280;30544;42.196;24.336;2023-02-10T04:36:10;101234.94;;;-6.91;72.87
26376;BME280;30544;42.196;24.336;2023-02-10T04:38:37;101245.13;;;-6.96;73.22
26376;BME280;30544;42.196;24.336;2023-02-10T04:41:04;101244.06;;;-6.93;73.53
26376;BME280;30544;42.196;24.336;2023-02-10T04:43:30;101242.16;;;-6.91;73.73
26376;BME280;30544;42.196;24.336;2023-02-10T04:45:59;101246.78;;;-6.93;73.76
26376;BME280;30544;42.196;24.336;2023-02-10T04:48:27;101256.00;;;-6.98;73.59
26376;BME280;30544;42.196;24.336;2023-02-10T04:50:54;101252.16;;;-7.09;74.33
26376;BME280;30544;42.196;24.336;2023-02-10T04:53:21;101251.75;;;-7.02;74.38
26376;BME280;30544;42.196;24.336;2023-02-10T04:55:48;101264.78;;;-7.10;74.12
26376;BME280;30544;42.196;24.336;2023-02-10T04:58:14;101252.25;;;-6.95;73.60
26376;BME280;30544;42.196;24.336;2023-02-10T05:00:41;101261.31;;;-7.12;73.88
26376;BME280;30544;42.196;24.336;2023-02-10T05:03:09;101258.53;;;-7.10;73.91
26376;BME280;30544;42.196;24.336;2023-02-10T05:05:36;101262.00;;;-7.08;73.74
26376;BME280;30544;42.196;24.336;2023-02-10T05:08:03;101256.38;;;-7.04;73.56
26376;BME280;30544;42.196;24.336;2023-02-10T05:10:30;101257.38;;;-6.90;73.20
26376;BME280;30544;42.196;24.336;2023-02-10T05:12:56;101258.44;;;-7.09;74.15
26376;BME280;30544;42.196;24.336;2023-02-10T05:15:23;101261.50;;;-7.15;74.16
26376;BME280;30544;42.196;24.336;2023-02-10T05:17:50;101260.53;;;-7.14;73.93
26376;BME280;30544;42.196;24.336;2023-02-10T05:20:18;101263.22;;;-7.14;74.29
26376;BME280;30544;42.196;24.336;2023-02-10T05:22:45;101272.00;;;-7.26;73.96
26376;BME280;30544;42.196;24.336;2023-02-10T05:25:12;101266.53;;;-7.09;73.78
26376;BME280;30544;42.196;24.336;2023-02-10T05:27:40;101270.72;;;-7.19;74.62
26376;BME280;30544;42.196;24.336;2023-02-10T05:30:08;101274.78;;;-7.28;74.69
26376;BME280;30544;42.196;24.336;2023-02-10T05:32:38;101281.34;;;-7.16;74.70
26376;BME280;30544;42.196;24.336;2023-02-10T05:35:05;101283.25;;;-7.18;75.22
26376;BME280;30544;42.196;24.336;2023-02-10T05:37:33;101280.00;;;-7.09;74.70
26376;BME280;30544;42.196;24.336;2023-02-10T05:40:00;101285.31;;;-7.23;74.35
26376;BME280;30544;42.196;24.336;2023-02-10T05:42:29;101285.31;;;-7.23;74.42
26376;BME280;30544;42.196;24.336;2023-02-10T05:44:56;101281.88;;;-7.42;75.03
26376;BME280;30544;42.196;24.336;2023-02-10T05:47:23;101292.06;;;-7.47;75.04
26376;BME280;30544;42.196;24.336;2023-02-10T05:49:50;101290.88;;;-7.26;74.82
26376;BME280;30544;42.196;24.336;2023-02-10T05:52:16;101295.94;;;-7.20;73.92
26376;BME280;30544;42.196;24.336;2023-02-10T05:54:44;101290.13;;;-7.12;73.33
26376;BME280;30544;42.196;24.336;2023-02-10T05:57:11;101284.13;;;-7.02;73.52
26376;BME280;30544;42.196;24.336;2023-02-10T05:59:38;101289.63;;;-6.87;72.84
26376;BME280;30544;42.196;24.336;2023-02-10T06:02:06;101281.53;;;-7.03;73.21
26376;BME280;30544;42.196;24.336;2023-02-10T06:04:33;101302.13;;;-7.18;73.84
26376;BME280;30544;42.196;24.336;2023-02-10T06:07:00;101304.31;;;-7.09;73.48
26376;BME280;30544;42.196;24.336;2023-02-10T06:09:27;101286.75;;;-7.00;73.42
26376;BME280;30544;42.196;24.336;2023-02-10T06:11:55;101287.34;;;-6.79;72.67
26376;BME280;30544;42.196;24.336;2023-02-10T06:14:22;101303.53;;;-6.79;72.17
26376;BME280;30544;42.196;24.336;2023-02-10T06:16:48;101306.84;;;-6.74;72.14
26376;BME280;30544;42.196;24.336;2023-02-10T06:19:15;101302.06;;;-6.85;72.59
26376;BME280;30544;42.196;24.336;2023-02-10T06:21:42;101303.19;;;-6.73;72.23
26376;BME280;30544;42.196;24.336;2023-02-10T06:24:09;101315.47;;;-6.52;72.58
26376;BME280;30544;42.196;24.336;2023-02-10T06:26:36;101310.78;;;-6.64;71.93
26376;BME280;30544;42.196;24.336;2023-02-10T06:29:04;101312.69;;;-6.66;71.93
26376;BME280;30544;42.196;24.336;2023-02-10T06:31:32;101312.50;;;-6.63;72.00
26376;BME280;30544;42.196;24.336;2023-02-10T06:33:58;101310.25;;;-6.55;71.25
26376;BME280;30544;42.196;24.336;2023-02-10T06:36:25;101313.56;;;-6.50;71.25
26376;BME280;30544;42.196;24.336;2023-02-10T06:38:52;101309.19;;;-6.37;71.45
26376;BME280;30544;42.196;24.336;2023-02-10T06:41:19;101316.28;;;-6.04;71.34
26376;BME280;30544;42.196;24.336;2023-02-10T06:43:46;101318.44;;;-6.11;70.14
26376;BME280;30544;42.196;24.336;2023-02-10T06:46:14;101325.88;;;-6.14;70.85
26376;BME280;30544;42.196;24.336;2023-02-10T06:48:41;101322.25;;;-5.99;70.84
26376;BME280;30544;42.196;24.336;2023-02-10T06:51:07;101316.03;;;-5.71;69.74
26376;BME280;30544;42.196;24.336;2023-02-10T06:53:34;101322.81;;;-5.64;69.36
26376;BME280;30544;42.196;24.336;2023-02-10T06:56:02;101315.59;;;-5.35;68.18
26376;BME280;30544;42.196;24.336;2023-02-10T06:58:28;101318.66;;;-5.41;68.23
26376;BME280;30544;42.196;24.336;2023-02-10T07:00:55;101316.84;;;-5.12;67.85
26376;BME280;30544;42.196;24.336;2023-02-10T07:03:25;101314.44;;;-5.02;68.92
26376;BME280;30544;42.196;24.336;2023-02-10T07:05:52;101310.59;;;-4.71;67.03
26376;BME280;30544;42.196;24.336;2023-02-10T07:08:19;101314.78;;;-4.80;67.13
26376;BME280;30544;42.196;24.336;2023-02-10T07:10:45;101316.72;;;-4.68;66.97
26376;BME280;30544;42.196;24.336;2023-02-10T07:13:12;101316.75;;;-4.55;66.13
26376;BME280;30544;42.196;24.336;2023-02-10T07:15:39;101316.78;;;-4.28;65.69
26376;BME280;30544;42.196;24.336;2023-02-10T07:18:06;101315.88;;;-4.14;64.57
26376;BME280;30544;42.196;24.336;2023-02-10T07:20:34;101319.31;;;-4.39;64.81
26376;BME280;30544;42.196;24.336;2023-02-10T07:23:01;101313.25;;;-4.16;64.58
26376;BME280;30544;42.196;24.336;2023-02-10T07:25:28;101311.19;;;-4.39;65.23
26376;BME280;30544;42.196;24.336;2023-02-10T07:27:54;101312.75;;;-4.35;65.99
26376;BME280;30544;42.196;24.336;2023-02-10T07:30:21;101317.28;;;-4.09;65.09
26376;BME280;30544;42.196;24.336;2023-02-10T07:32:48;101319.84;;;-4.20;65.24
26376;BME280;30544;42.196;24.336;2023-02-10T07:35:15;101315.94;;;-3.89;65.46
26376;BME280;30544;42.196;24.336;2023-02-10T07:37:43;101313.63;;;-3.30;64.63
26376;BME280;30544;42.196;24.336;2023-02-10T07:40:10;101309.19;;;-3.18;63.56
26376;BME280;30544;42.196;24.336;2023-02-10T07:42:37;101308.53;;;-3.47;63.58
26376;BME280;30544;42.196;24.336;2023-02-10T07:45:04;101307.34;;;-3.18;63.61
26376;BME280;30544;42.196;24.336;2023-02-10T07:47:31;101296.88;;;-2.98;63.26
26376;BME280;30544;42.196;24.336;2023-02-10T07:49:58;101287.94;;;-2.88;61.98
26376;BME280;30544;42.196;24.336;2023-02-10T07:52:24;101293.81;;;-2.81;61.42
26376;BME280;30544;42.196;24.336;2023-02-10T07:54:52;101296.63;;;-2.83;61.75
26376;BME280;30544;42.196;24.336;2023-02-10T07:57:21;101295.09;;;-2.14;61.71
26376;BME280;30544;42.196;24.336;2023-02-10T07:59:47;101284.41;;;-1.93;60.68
26376;BME280;30544;42.196;24.336;2023-02-10T08:02:14;101286.50;;;-1.61;58.33
26376;BME280;30544;42.196;24.336;2023-02-10T08:04:41;101280.59;;;-1.90;58.45
26376;BME280;30544;42.196;24.336;2023-02-10T08:07:08;101279.84;;;-1.35;58.26
26376;BME280;30544;42.196;24.336;2023-02-10T08:09:36;101267.34;;;-1.37;57.69
26376;BME280;30544;42.196;24.336;2023-02-10T08:12:04;101275.16;;;-1.33;57.16
26376;BME280;30544;42.196;24.336;2023-02-10T08:14:31;101267.00;;;-1.10;57.31
26376;BME280;30544;42.196;24.336;2023-02-10T08:16:58;101263.63;;;-1.36;56.75
26376;BME280;30544;42.196;24.336;2023-02-10T08:19:25;101263.34;;;-1.67;57.62
26376;BME280;30544;42.196;24.336;2023-02-10T08:21:52;101258.69;;;-0.75;56.07
26376;BME280;30544;42.196;24.336;2023-02-10T08:24:19;101265.47;;;-0.70;55.05
26376;BME280;30544;42.196;24.336;2023-02-10T08:26:45;101277.53;;;-0.95;55.07
26376;BME280;30544;42.196;24.336;2023-02-10T08:29:14;101266.06;;;-0.55;54.99
26376;BME280;30544;42.196;24.336;2023-02-10T08:31:40;101270.03;;;-0.48;53.67
26376;BME280;30544;42.196;24.336;2023-02-10T08:34:14;101279.00;;;-0.14;53.57
26376;BME280;30544;42.196;24.336;2023-02-10T08:36:41;101269.84;;;-0.24;54.08
26376;BME280;30544;42.196;24.336;2023-02-10T08:39:09;101270.78;;;-0.46;53.36
26376;BME280;30544;42.196;24.336;2023-02-10T08:41:35;101272.81;;;-0.93;53.84
26376;BME280;30544;42.196;24.336;2023-02-10T08:44:02;101271.53;;;-0.55;52.85
26376;BME280;30544;42.196;24.336;2023-02-10T08:46:31;101268.66;;;0.01;52.49
26376;BME280;30544;42.196;24.336;2023-02-10T08:48:58;101262.53;;;0.29;51.89
26376;BME280;30544;42.196;24.336;2023-02-10T08:51:26;101258.88;;;0.61;50.86
26376;BME280;30544;42.196;24.336;2023-02-10T08:53:53;101262.66;;;0.07;52.32
26376;BME280;30544;42.196;24.336;2023-02-10T08:56:21;101256.41;;;0.58;50.75
26376;BME280;30544;42.196;24.336;2023-02-10T08:58:48;101264.00;;;0.34;48.66
26376;BME280;30544;42.196;24.336;2023-02-10T09:01:18;101257.34;;;0.47;49.10
26376;BME280;30544;42.196;24.336;2023-02-10T09:03:47;101267.63;;;0.55;49.30
26376;BME280;30544;42.196;24.336;2023-02-10T09:06:14;101261.66;;;0.71;48.54
26376;BME280;30544;42.196;24.336;2023-02-10T09:08:42;101260.63;;;0.93;48.98
26376;BME280;30544;42.196;24.336;2023-02-10T09:11:09;101252.41;;;0.62;48.79
26376;BME280;30544;42.196;24.336;2023-02-10T09:13:36;101249.47;;;0.33;49.07
26376;BME280;30544;42.196;24.336;2023-02-10T09:16:03;101250.88;;;0.69;48.28
26376;BME280;30544;42.196;24.336;2023-02-10T09:18:30;101249.53;;;0.84;47.68
26376;BME280;30544;42.196;24.336;2023-02-10T09:20:58;101246.88;;;1.04;47.38
26376;BME280;30544;42.196;24.336;2023-02-10T09:23:25;101233.28;;;1.23;47.00
26376;BME280;30544;42.196;24.336;2023-02-10T09:25:53;101239.19;;;0.88;46.42
26376;BME280;30544;42.196;24.336;2023-02-10T09:28:20;101236.34;;;0.69;47.09
26376;BME280;30544;42.196;24.336;2023-02-10T09:30:47;101245.38;;;0.90;46.57
26376;BME280;30544;42.196;24.336;2023-02-10T09:33:13;101232.00;;;0.87;46.08
26376;BME280;30544;42.196;24.336;2023-02-10T09:35:40;101222.88;;;1.76;44.74
26376;BME280;30544;42.196;24.336;2023-02-10T09:38:09;101228.31;;;1.67;45.15
26376;BME280;30544;42.196;24.336;2023-02-10T09:40:45;101220.56;;;1.91;44.55
26376;BME280;30544;42.196;24.336;2023-02-10T09:43:22;101205.72;;;1.65;44.13
26376;BME280;30544;42.196;24.336;2023-02-10T09:45:57;101210.19;;;2.14;44.26
26376;BME280;30544;42.196;24.336;2023-02-10T09:48:32;101208.31;;;1.57;44.21
26376;BME280;30544;42.196;24.336;2023-02-10T09:51:07;101207.25;;;1.38;44.88
26376;BME280;30544;42.196;24.336;2023-02-10T09:53:39;101204.66;;;1.46;44.95
26376;BME280;30544;42.196;24.336;2023-02-10T09:56:19;101188.72;;;1.80;44.55
26376;BME280;30544;42.196;24.336;2023-02-10T09:58:49;101184.81;;;1.44;43.71
26376;BME280;30544;42.196;24.336;2023-02-10T10:01:22;101181.09;;;1.55;44.42
26376;BME280;30544;42.196;24.336;2023-02-10T10:03:55;101181.09;;;1.74;44.23
26376;BME280;30544;42.196;24.336;2023-02-10T10:06:27;101176.75;;;2.10;43.08
26376;BME280;30544;42.196;24.336;2023-02-10T10:09:02;101172.16;;;1.92;43.17
26376;BME280;30544;42.196;24.336;2023-02-10T10:11:36;101167.81;;;1.50;43.41
26376;BME280;30544;42.196;24.336;2023-02-10T10:14:04;101167.72;;;1.71;43.47
26376;BME280;30544;42.196;24.336;2023-02-10T10:16:56;101157.06;;;1.88;42.45
26376;BME280;30544;42.196;24.336;2023-02-10T10:19:34;101148.25;;;1.94;43.33
26376;BME280;30544;42.196;24.336;2023-02-10T10:22:20;101154.00;;;2.10;41.69
26376;BME280;30544;42.196;24.336;2023-02-10T10:25:03;101137.72;;;2.55;42.13
26376;BME280;30544;42.196;24.336;2023-02-10T10:27:40;101141.34;;;2.46;41.42
26376;BME280;30544;42.196;24.336;2023-02-10T10:30:18;101133.16;;;3.01;40.96
26376;BME280;30544;42.196;24.336;2023-02-10T10:32:47;101126.50;;;2.49;40.92
26376;BME280;30544;42.196;24.336;2023-02-10T10:35:16;101124.72;;;2.10;41.84
26376;BME280;30544;42.196;24.336;2023-02-10T10:37:43;101117.97;;;2.89;41.28
26376;BME280;30544;42.196;24.336;2023-02-10T10:40:16;101127.75;;;2.91;41.87
26376;BME280;30544;42.196;24.336;2023-02-10T10:42:45;101121.47;;;2.34;41.53
26376;BME280;30544;42.196;24.336;2023-02-10T10:45:16;101119.28;;;2.48;41.17
26376;BME280;30544;42.196;24.336;2023-02-10T10:47:47;101112.09;;;3.01;40.50
26376;BME280;30544;42.196;24.336;2023-02-10T10:50:16;101102.03;;;2.75;40.82
26376;BME280;30544;42.196;24.336;2023-02-10T10:52:45;101103.22;;;3.35;40.11
26376;BME280;30544;42.196;24.336;2023-02-10T10:55:20;101105.53;;;3.12;39.61
26376;BME280;30544;42.196;24.336;2023-02-10T10:57:50;101098.56;;;3.36;39.91
26376;BME280;30544;42.196;24.336;2023-02-10T11:00:20;101095.28;;;3.14;40.15
26376;BME280;30544;42.196;24.336;2023-02-10T11:02:52;101101.03;;;2.93;40.56
26376;BME280;30544;42.196;24.336;2023-02-10T11:05:19;101098.97;;;3.23;40.46
26376;BME280;30544;42.196;24.336;2023-02-10T11:07:49;101081.66;;;3.22;41.26
26376;BME280;30544;42.196;24.336;2023-02-10T11:10:25;101082.06;;;3.27;39.37
26376;BME280;30544;42.196;24.336;2023-02-10T11:12:53;101077.19;;;3.21;39.84
26376;BME280;30544;42.196;24.336;2023-02-10T11:15:29;101067.47;;;3.27;39.24
26376;BME280;30544;42.196;24.336;2023-02-10T11:17:58;101075.63;;;3.72;38.98
26376;BME280;30544;42.196;24.336;2023-02-10T11:20:28;101072.16;;;3.35;40.05
26376;BME280;30544;42.196;24.336;2023-02-10T11:22:57;101057.16;;;3.21;39.17
26376;BME280;30544;42.196;24.336;2023-02-10T11:25:28;101059.41;;;3.08;40.07
26376;BME280;30544;42.196;24.336;2023-02-10T11:27:57;101050.97;;;3.37;40.02
26376;BME280;30544;42.196;24.336;2023-02-10T11:30:26;101053.25;;;3.67;38.54
26376;BME280;30544;42.196;24.336;2023-02-10T11:32:54;101041.44;;;3.92;38.76
26376;BME280;30544;42.196;24.336;2023-02-10T11:35:22;101046.81;;;3.76;38.41
26376;BME280;30544;42.196;24.336;2023-02-10T11:37:52;101034.25;;;3.91;39.18
26376;BME280;30544;42.196;24.336;2023-02-10T11:40:22;101025.41;;;4.06;37.84
26376;BME280;30544;42.196;24.336;2023-02-10T11:42:53;101033.78;;;3.78;39.00
26376;BME280;30544;42.196;24.336;2023-02-10T11:45:22;101033.47;;;3.81;38.90
26376;BME280;30544;42.196;24.336;2023-02-10T11:47:59;101030.09;;;3.87;38.10
26376;BME280;30544;42.196;24.336;2023-02-10T11:50:30;101020.47;;;3.66;37.79
26376;BME280;30544;42.196;24.336;2023-02-10T11:52:57;101016.56;;;3.68;38.89
26376;BME280;30544;42.196;24.336;2023-02-10T11:55:37;101016.75;;;3.49;38.37
26376;BME280;30544;42.196;24.336;2023-02-10T11:58:25;101009.72;;;4.24;37.84
26376;BME280;30544;42.196;24.336;2023-02-10T12:01:33;101003.84;;;4.19;37.54
26376;BME280;30544;42.196;24.336;2023-02-10T12:04:15;101000.97;;;4.29;37.23
26376;BME280;30544;42.196;24.336;2023-02-10T12:06:52;100992.22;;;4.25;36.45
26376;BME280;30544;42.196;24.336;2023-02-10T12:09:27;100994.34;;;4.39;36.72
26376;BME280;30544;42.196;24.336;2023-02-10T12:12:01;100991.59;;;4.47;37.95
26376;BME280;30544;42.196;24.336;2023-02-10T12:14:45;100983.53;;;4.46;36.91
26376;BME280;30544;42.196;24.336;2023-02-10T12:17:24;100980.81;;;4.12;36.87
26376;BME280;30544;42.196;24.336;2023-02-10T12:20:04;100973.75;;;4.09;37.23
26376;BME280;30544;42.196;24.336;2023-02-10T12:22:43;100971.19;;;4.50;37.11
26376;BME280;30544;42.196;24.336;2023-02-10T12:25:16;100963.09;;;4.40;36.93
26376;BME280;30544;42.196;24.336;2023-02-10T12:27:59;100965.34;;;4.11;36.85
26376;BME280;30544;42.196;24.336;2023-02-10T12:30:35;100963.84;;;4.67;36.30
26376;BME280;30544;42.196;24.336;2023-02-10T12:33:24;100958.38;;;4.75;35.87
26376;BME280;30544;42.196;24.336;2023-02-10T12:36:06;100958.22;;;4.34;36.29
26376;BME280;30544;42.196;24.336;2023-02-10T12:38:49;100952.09;;;4.48;36.08
26376;BME280;30544;42.196;24.336;2023-02-10T12:41:25;100955.53;;;4.42;36.43
26376;BME280;30544;42.196;24.336;2023-02-10T12:44:02;100954.66;;;4.42;36.32
26376;BME280;30544;42.196;24.336;2023-02-10T12:46:41;100950.59;;;4.54;35.95
26376;BME280;30544;42.196;24.336;2023-02-10T12:49:22;100947.06;;;4.28;37.21
26376;BME280;30544;42.196;24.336;2023-02-10T12:51:59;100949.44;;;4.81;36.33
26376;BME280;30544;42.196;24.336;2023-02-10T12:54:33;100950.84;;;4.27;36.89
26376;BME280;30544;42.196;24.336;2023-02-10T12:57:05;100948.09;;;4.27;36.19